Catalina Express — WCJ6210 — position and weather

sailwx.info

Track history (hours):
 
Tides and Currents Weather Stations Pressure Air Temp Water Temp Dewpoint Dewpoint Depression Visibility Wind Speed Wind Dir Waves Ship Positions

Catalina Express

Owner: RGWT INC, Long Beach, CA. More information available from US FCC via Universal Licensing System and Coast Guard Vessel Documentation Center.

Last reported at 2018-Jul-22 16:30 UTC. Time now 2018-Jul-22 16:42 UTC.
Position N 33°21' W 118°19'.

Length 37 m; draft 1.1 m.

Type: High speed craft. MMSI: 366943960.

Date/timePositionNaut miles runAvg speedWind from/ knotsBaromVisibWave heightAir tempDewpointWater temp
2018-Jul-22 16:30N 33°21' W 118°19'2 3.9
2018-Jul-22 16:01N 33°21' W 118°17'2726.3
2018-Jul-22 14:59N 33°26' W 117°46'4 7.7
2018-Jul-22 14:30N 33°28' W 117°42'0 0.0
2018-Jul-22 14:01N 33°28' W 117°42'0 0.1
2018-Jul-22 13:30N 33°28' W 117°41'0 0.0
2018-Jul-22 03:10N 33°28' W 117°42'1 4.0
2018-Jul-22 03:01N 33°27' W 117°42'1427.1
2018-Jul-22 02:30N 33°24' W 117°58'1326.9
2018-Jul-22 02:01N 33°22' W 118°13'5 9.7
2018-Jul-22 01:30N 33°21' W 118°19'2 3.3
2018-Jul-22 01:01N 33°21' W 118°17'1326.1
2018-Jul-22 00:30N 33°24' W 118°02'1427.7
2018-Jul-22 00:01N 33°26' W 117°46'4 7.7
2018-Jul-21 23:30N 33°28' W 117°42'0 0.0
2018-Jul-21 23:00N 33°28' W 117°42'0 0.0
2018-Jul-21 22:30N 33°28' W 117°42'611.4
2018-Jul-21 22:00N 33°25' W 117°48'1427.8
2018-Jul-21 21:31N 33°23' W 118°04'1325.7
2018-Jul-21 21:01N 33°21' W 118°19'0 0.1
2018-Jul-21 20:29N 33°21' W 118°19'714.1
2018-Jul-21 20:01N 33°22' W 118°12'1326.3
2018-Jul-21 19:30N 33°25' W 117°56'1224.6
2018-Jul-21 19:00N 33°27' W 117°42'0 0.5
2018-Jul-21 18:30N 33°28' W 117°42'3 6.2
2018-Jul-21 18:00N 33°26' W 117°45'1626.6
2018-Jul-21 17:25N 33°23' W 118°03'1126.2
2018-Jul-21 17:00N 33°21' W 118°16'3 5.8
2018-Jul-21 16:30N 33°21' W 118°19'4 7.6
2018-Jul-21 16:00N 33°22' W 118°15'1326.0
2018-Jul-21 15:31N 33°24' W 117°60'1325.9
2018-Jul-21 15:01N 33°27' W 117°45'3 5.7
2018-Jul-21 14:30N 33°28' W 117°42'0 0.1
2018-Jul-21 14:00N 33°28' W 117°41'0 0.1
2018-Jul-21 13:30N 33°28' W 117°41'0 0.0
2018-Jul-21 03:09N 33°28' W 117°42'0 2.2
2018-Jul-21 03:00N 33°27' W 117°41'1326.1
2018-Jul-21 02:30N 33°25' W 117°57'1427.1
2018-Jul-21 02:01N 33°22' W 118°13'611.2
2018-Jul-21 01:30N 33°21' W 118°19'3 6.1
2018-Jul-21 01:01N 33°22' W 118°16'1427.0
2018-Jul-21 00:30N 33°24' W 117°60'1327.0
2018-Jul-21 00:00N 33°27' W 117°44'2 4.7
2018-Jul-20 23:30N 33°28' W 117°42'0 0.0
2018-Jul-20 23:00N 33°28' W 117°42'0 0.0
2018-Jul-20 22:31N 33°28' W 117°42'510.9
2018-Jul-20 22:00N 33°26' W 117°48'1427.8
2018-Jul-20 21:31N 33°23' W 118°04'1326.0
2018-Jul-20 21:00N 33°21' W 118°19'0 0.1
2018-Jul-20 20:30N 33°21' W 118°19'917.1
2018-Jul-20 20:01N 33°23' W 118°09'1326.3
2018-Jul-20 19:30N 33°25' W 117°54'1121.3
2018-Jul-20 19:00N 33°28' W 117°42'0 0.0
2018-Jul-20 18:30N 33°28' W 117°42'1 1.2
2018-Jul-20 18:01N 33°27' W 117°42'1428.0
2018-Jul-20 17:31N 33°24' W 117°58'1427.7
2018-Jul-20 17:01N 33°21' W 118°14'4 7.8
2018-Jul-20 16:29N 33°21' W 118°19'3 7.3
2018-Jul-20 16:00N 33°21' W 118°15'1325.8
2018-Jul-20 15:30N 33°24' W 118°00'1325.6
2018-Jul-20 15:00N 33°26' W 117°45'3 6.4
2018-Jul-20 14:30N 33°28' W 117°42'0 0.0
2018-Jul-20 14:00N 33°28' W 117°42'0 0.1
2018-Jul-20 13:30N 33°28' W 117°41'0 0.0
2018-Jul-20 03:21N 33°28' W 117°42'0 0.0
2018-Jul-20 03:00N 33°28' W 117°42'0 0.0
2018-Jul-20 02:30N 33°28' W 117°42'0 0.2
2018-Jul-20 02:00N 33°27' W 117°42'1325.0
2018-Jul-20 01:30N 33°25' W 117°56'1427.5
2018-Jul-20 00:59N 33°22' W 118°13'5 6.3
2018-Jul-20 00:07N 33°21' W 118°19'112.4
2018-Jul-20 00:01N 33°21' W 118°18'1326.7
2018-Jul-19 23:30N 33°24' W 118°02'1326.9
2018-Jul-19 23:01N 33°26' W 117°46'4 8.4
2018-Jul-19 22:30N 33°28' W 117°42'0 0.0
2018-Jul-19 22:00N 33°28' W 117°42'0 0.0
2018-Jul-19 21:31N 33°28' W 117°42'0 0.0
2018-Jul-19 21:00N 33°28' W 117°42'0 0.0
2018-Jul-19 20:30N 33°28' W 117°42'1 2.3
2018-Jul-19 20:01N 33°27' W 117°43'1427.1
2018-Jul-19 19:31N 33°24' W 117°59'1427.2
2018-Jul-19 18:59N 33°22' W 118°15'4 4.4
2018-Jul-19 18:10N 33°21' W 118°19'419.4
2018-Jul-19 17:58N 33°22' W 118°15'1226.1
2018-Jul-19 17:30N 33°24' W 118°01'1326.0
2018-Jul-19 17:01N 33°26' W 117°45'4 7.0
2018-Jul-19 16:30N 33°28' W 117°42'0 0.0
2018-Jul-19 16:00N 33°28' W 117°42'0 0.0
2018-Jul-19 15:30N 33°28' W 117°42'0 0.0
2018-Jul-19 03:08N 33°28' W 117°42'0 0.0
2018-Jul-19 03:00N 33°28' W 117°42'0 0.0
2018-Jul-19 02:30N 33°28' W 117°42'0 0.0
2018-Jul-19 02:00N 33°28' W 117°42'1121.9
2018-Jul-19 01:30N 33°25' W 117°55'1326.5
2018-Jul-19 01:01N 33°22' W 118°10'816.3
2018-Jul-19 00:31N 33°21' W 118°19'2 3.7
2018-Jul-19 00:01N 33°21' W 118°17'1326.2
2018-Jul-18 23:31N 33°24' W 118°02'1326.4
2018-Jul-18 23:00N 33°26' W 117°46'4 8.2
2018-Jul-18 22:30N 33°28' W 117°42'0 0.0
2018-Jul-18 22:00N 33°28' W 117°42'0 0.0
2018-Jul-18 21:30N 33°28' W 117°42'0 0.0
2018-Jul-18 21:00N 33°28' W 117°42'0 0.0
2018-Jul-18 20:30N 33°28' W 117°42'1 2.8
2018-Jul-18 20:01N 33°27' W 117°43'1326.9
2018-Jul-18 19:31N 33°24' W 117°59'1427.1
2018-Jul-18 19:01N 33°22' W 118°15'4 8.0
2018-Jul-18 18:30N 33°21' W 118°19'5 9.2
2018-Jul-18 18:00N 33°22' W 118°14'1325.7
2018-Jul-18 17:31N 33°24' W 117°59'1325.6
2018-Jul-18 17:01N 33°27' W 117°44'2 4.4
2018-Jul-18 16:30N 33°28' W 117°42'0 0.1
2018-Jul-18 16:00N 33°28' W 117°41'0 0.1
2018-Jul-18 15:30N 33°28' W 117°42'0 0.0
2018-Jul-18 15:00N 33°28' W 117°42'0 0.0
2018-Jul-18 03:20N 33°28' W 117°42'0 0.0
2018-Jul-18 03:00N 33°28' W 117°42'0 0.0
2018-Jul-18 02:30N 33°28' W 117°42'0 0.1
2018-Jul-18 02:00N 33°28' W 117°42'1223.2
2018-Jul-18 01:31N 33°25' W 117°55'1427.1
2018-Jul-18 00:59N 33°22' W 118°12'710.8
2018-Jul-18 00:22N 33°21' W 118°19'511.5
2018-Jul-17 23:55N 33°22' W 118°13'1127.6
2018-Jul-17 23:30N 33°24' W 118°00'1427.5
2018-Jul-17 23:01N 33°27' W 117°44'2 4.5
2018-Jul-17 22:30N 33°28' W 117°42'0 0.0
2018-Jul-17 22:00N 33°28' W 117°42'0 0.0
2018-Jul-17 21:30N 33°28' W 117°42'0 0.0
2018-Jul-17 21:01N 33°28' W 117°42'0 0.0
2018-Jul-17 20:30N 33°28' W 117°42'4 7.6
2018-Jul-17 20:00N 33°26' W 117°46'1526.0
2018-Jul-17 19:27N 33°23' W 118°03'1225.5
2018-Jul-17 18:58N 33°21' W 118°17'2 2.1
2018-Jul-17 18:13N 33°21' W 118°19'724.3
2018-Jul-17 17:56N 33°23' W 118°12'1125.9
2018-Jul-17 17:31N 33°25' W 117°58'1325.7
2018-Jul-17 17:00N 33°27' W 117°43'2 3.2
2018-Jul-17 16:30N 33°28' W 117°42'0 0.0
2018-Jul-17 16:01N 33°28' W 117°42'0 0.0
2018-Jul-17 15:30N 33°28' W 117°42'0 0.0
2018-Jul-17 15:01N 33°28' W 117°42'0 0.0
2018-Jul-17 14:30N 33°28' W 117°42'0 0.0
2018-Jul-17 14:00N 33°28' W 117°42'0 0.0
2018-Jul-17 03:14N 33°28' W 117°42'0 0.0
2018-Jul-17 03:00N 33°28' W 117°42'0 0.0
2018-Jul-17 02:30N 33°28' W 117°42'2 4.7
2018-Jul-17 02:00N 33°26' W 117°44'1020.7
2018-Jul-17 01:31N 33°24' W 117°56'1224.9
2018-Jul-17 01:01N 33°22' W 118°11'7 9.6
2018-Jul-17 00:15N 33°21' W 118°19'1520.5
2018-Jul-16 23:31N 33°23' W 118°02'1326.0
2018-Jul-16 23:01N 33°26' W 117°46'4 8.5
2018-Jul-16 22:30N 33°28' W 117°42'0 0.0
2018-Jul-16 22:00N 33°28' W 117°42'0 0.0
2018-Jul-16 21:30N 33°28' W 117°42'0 0.0
2018-Jul-16 20:59N 33°28' W 117°42'0 0.0
2018-Jul-16 20:30N 33°28' W 117°42'3 6.0
2018-Jul-16 20:00N 33°26' W 117°45'1325.9
2018-Jul-16 19:31N 33°24' W 118°00'1326.0
2018-Jul-16 19:01N 33°21' W 118°15'3 4.2
2018-Jul-16 18:12N 33°21' W 118°19'722.8
2018-Jul-16 17:54N 33°22' W 118°11'1025.8
2018-Jul-16 17:30N 33°24' W 117°59'1325.8
2018-Jul-16 17:01N 33°27' W 117°44'2 4.5
2018-Jul-16 16:30N 33°28' W 117°42'0 0.0
2018-Jul-16 16:00N 33°28' W 117°42'0 0.1
2018-Jul-16 15:30N 33°28' W 117°41'0 0.1
2018-Jul-16 15:00N 33°28' W 117°42'0 0.0
2018-Jul-16 03:13N 33°28' W 117°42'1 3.9
2018-Jul-16 03:01N 33°27' W 117°42'1426.9
2018-Jul-16 02:30N 33°24' W 117°58'1326.8
2018-Jul-16 02:00N 33°22' W 118°14'5 9.5
2018-Jul-16 01:30N 33°21' W 118°19'2 4.1
2018-Jul-16 00:59N 33°21' W 118°17'1327.7
2018-Jul-16 00:30N 33°24' W 118°01'1427.6
2018-Jul-16 00:01N 33°27' W 117°45'3 6.2
2018-Jul-15 23:30N 33°28' W 117°42'0 0.0
2018-Jul-15 23:00N 33°28' W 117°42'0 0.0
2018-Jul-15 22:30N 33°28' W 117°42'611.7
2018-Jul-15 22:00N 33°26' W 117°48'1326.9
2018-Jul-15 21:31N 33°23' W 118°04'1326.1
2018-Jul-15 21:01N 33°21' W 118°19'0 0.2
2018-Jul-15 20:30N 33°21' W 118°19'713.8
2018-Jul-15 20:01N 33°23' W 118°11'1326.6
2018-Jul-15 19:30N 33°25' W 117°56'1224.2
2018-Jul-15 19:01N 33°27' W 117°42'0 0.5
2018-Jul-15 18:30N 33°28' W 117°42'3 5.1
2018-Jul-15 18:01N 33°26' W 117°44'1326.7
2018-Jul-15 17:30N 33°24' W 118°00'1326.7
2018-Jul-15 17:00N 33°21' W 118°16'3 6.4
2018-Jul-15 16:30N 33°21' W 118°19'2 4.1
2018-Jul-15 16:00N 33°22' W 118°17'1326.8
2018-Jul-15 15:31N 33°24' W 118°01'1326.3
2018-Jul-15 15:01N 33°27' W 117°46'4 7.6
2018-Jul-15 14:30N 33°28' W 117°42'0 0.0
2018-Jul-15 14:00N 33°28' W 117°42'0 0.1
2018-Jul-15 13:31N 33°28' W 117°41'0 0.0
2018-Jul-15 03:08N 33°28' W 117°42'0 2.5
2018-Jul-15 03:01N 33°27' W 117°41'1326.1
2018-Jul-15 02:31N 33°24' W 117°57'1427.1
2018-Jul-15 02:00N 33°22' W 118°13'611.4
2018-Jul-15 01:30N 33°21' W 118°19'0 0.4
2018-Jul-15 01:01N 33°21' W 118°19'1326.9
2018-Jul-15 00:31N 33°23' W 118°03'1427.9
2018-Jul-15 00:01N 33°26' W 117°47'5 9.6
2018-Jul-14 23:30N 33°28' W 117°42'0 0.0
2018-Jul-14 23:00N 33°28' W 117°42'0 0.0
2018-Jul-14 22:30N 33°28' W 117°42'510.2
2018-Jul-14 22:00N 33°26' W 117°47'1427.7
2018-Jul-14 21:31N 33°23' W 118°04'1326.6
2018-Jul-14 21:00N 33°21' W 118°19'0 0.3
2018-Jul-14 20:30N 33°21' W 118°19'612.4
2018-Jul-14 20:00N 33°22' W 118°12'1326.9
2018-Jul-14 19:30N 33°24' W 117°56'1325.1
2018-Jul-14 19:00N 33°27' W 117°42'0 0.5
2018-Jul-14 18:30N 33°28' W 117°42'1 2.8
2018-Jul-14 18:00N 33°27' W 117°43'1427.7
2018-Jul-14 17:30N 33°24' W 117°59'1427.5
2018-Jul-14 17:00N 33°22' W 118°15'4 7.3
2018-Jul-14 16:30N 33°21' W 118°19'4 7.7
2018-Jul-14 16:01N 33°22' W 118°15'1326.9
2018-Jul-14 15:31N 33°25' W 117°59'1326.8
2018-Jul-14 15:00N 33°27' W 117°43'2 3.6
2018-Jul-14 14:30N 33°28' W 117°42'0 0.1
2018-Jul-14 13:30N 33°28' W 117°41'0 0.1
2018-Jul-14 13:00N 33°28' W 117°42'0 0.0
2018-Jul-14 03:15N 33°28' W 117°42'0 1.7
2018-Jul-14 03:01N 33°27' W 117°41'1326.6
2018-Jul-14 02:31N 33°24' W 117°57'1326.7
2018-Jul-14 02:00N 33°22' W 118°13'610.5
2018-Jul-14 01:29N 33°21' W 118°19'4 8.6
2018-Jul-14 01:00N 33°20' W 118°14'1326.2
2018-Jul-14 00:31N 33°22' W 117°59'1325.9
2018-Jul-14 00:00N 33°26' W 117°44'3 5.6
2018-Jul-13 23:30N 33°28' W 117°42'0 0.0
2018-Jul-13 23:00N 33°28' W 117°42'0 0.0
2018-Jul-13 22:30N 33°28' W 117°42'714.5
2018-Jul-13 22:01N 33°25' W 117°50'1527.3
2018-Jul-13 21:27N 33°22' W 118°08'10 8.3
2018-Jul-13 20:15N 33°21' W 118°19'622.7
2018-Jul-13 19:58N 33°22' W 118°12'1327.1
2018-Jul-13 19:30N 33°25' W 117°57'1326.7
2018-Jul-13 19:00N 33°27' W 117°42'0 0.9
2018-Jul-13 18:30N 33°28' W 117°42'1 1.6
2018-Jul-13 18:00N 33°27' W 117°42'1427.7
2018-Jul-13 17:31N 33°24' W 117°58'1427.4
2018-Jul-13 17:00N 33°22' W 118°15'4 8.2
2018-Jul-13 16:30N 33°21' W 118°19'2 3.9
2018-Jul-13 16:00N 33°21' W 118°17'1427.0
2018-Jul-13 15:30N 33°24' W 118°01'1326.9
2018-Jul-13 15:01N 33°26' W 117°45'4 3.5
2018-Jul-13 14:00N 33°28' W 117°42'0 0.1
2018-Jul-13 13:30N 33°28' W 117°41'0 0.1
2018-Jul-13 13:00N 33°28' W 117°42'0 0.0
2018-Jul-13 03:25N 33°28' W 117°42'0 0.0
2018-Jul-13 03:00N 33°28' W 117°42'0 0.0
2018-Jul-13 02:30N 33°28' W 117°42'0 0.0
2018-Jul-13 02:00N 33°28' W 117°42'1122.0
2018-Jul-13 01:31N 33°25' W 117°54'1427.2
2018-Jul-13 00:59N 33°22' W 118°11'710.8
2018-Jul-13 00:20N 33°21' W 118°19'1 1.5
2018-Jul-13 00:00N 33°21' W 118°19'1427.5
2018-Jul-12 23:30N 33°23' W 118°03'1427.2
2018-Jul-12 23:00N 33°26' W 117°47'4 9.0
2018-Jul-12 22:30N 33°28' W 117°42'0 0.2
2018-Jul-12 22:00N 33°28' W 117°41'1324.4
2018-Jul-12 21:29N 33°25' W 117°56'1428.4
2018-Jul-12 21:01N 33°22' W 118°12'612.2
2018-Jul-12 20:30N 33°21' W 118°20'0 0.0
2018-Jul-12 20:01N 33°21' W 118°20'1 1.2
2018-Jul-12 19:30N 33°21' W 118°19'612.7
2018-Jul-12 19:01N 33°27' W 118°17'1326.9
2018-Jul-12 18:30N 33°40' W 118°12'612.5
2018-Jul-12 18:00N 33°46' W 118°12'0 0.0
2018-Jul-12 17:30N 33°46' W 118°12'0 0.0
2018-Jul-12 17:00N 33°46' W 118°12'0 0.0
2018-Jul-12 16:30N 33°46' W 118°12'  
Track history (hours):
 
Tides and Currents Weather Stations Pressure Air Temp Water Temp Dewpoint Dewpoint Depression Visibility Wind Speed Wind Dir Waves Ship Positions

Catalina Express

Owner: RGWT INC, Long Beach, CA. More information available from US FCC via Universal Licensing System and Coast Guard Vessel Documentation Center.

Last reported at 2018-Jul-22 16:30 UTC. Time now 2018-Jul-22 16:42 UTC.
Position N 33°21' W 118°19'.

Length 37 m; draft 1.1 m.

Type: High speed craft. MMSI: 366943960.

Date/timePositionNaut miles runAvg speedWind from/ knotsBaromVisibWave heightAir tempDewpointWater temp
2018-Jul-22 16:30N 33°21' W 118°19'2 3.9
2018-Jul-22 16:01N 33°21' W 118°17'2726.3
2018-Jul-22 14:59N 33°26' W 117°46'4 7.7
2018-Jul-22 14:30N 33°28' W 117°42'0 0.0
2018-Jul-22 14:01N 33°28' W 117°42'0 0.1
2018-Jul-22 13:30N 33°28' W 117°41'0 0.0
2018-Jul-22 03:10N 33°28' W 117°42'1 4.0
2018-Jul-22 03:01N 33°27' W 117°42'1427.1
2018-Jul-22 02:30N 33°24' W 117°58'1326.9
2018-Jul-22 02:01N 33°22' W 118°13'5 9.7
2018-Jul-22 01:30N 33°21' W 118°19'2 3.3
2018-Jul-22 01:01N 33°21' W 118°17'1326.1
2018-Jul-22 00:30N 33°24' W 118°02'1427.7
2018-Jul-22 00:01N 33°26' W 117°46'4 7.7
2018-Jul-21 23:30N 33°28' W 117°42'0 0.0
2018-Jul-21 23:00N 33°28' W 117°42'0 0.0
2018-Jul-21 22:30N 33°28' W 117°42'611.4
2018-Jul-21 22:00N 33°25' W 117°48'1427.8
2018-Jul-21 21:31N 33°23' W 118°04'1325.7
2018-Jul-21 21:01N 33°21' W 118°19'0 0.1
2018-Jul-21 20:29N 33°21' W 118°19'714.1
2018-Jul-21 20:01N 33°22' W 118°12'1326.3
2018-Jul-21 19:30N 33°25' W 117°56'1224.6
2018-Jul-21 19:00N 33°27' W 117°42'0 0.5
2018-Jul-21 18:30N 33°28' W 117°42'3 6.2
2018-Jul-21 18:00N 33°26' W 117°45'1626.6
2018-Jul-21 17:25N 33°23' W 118°03'1126.2
2018-Jul-21 17:00N 33°21' W 118°16'3 5.8
2018-Jul-21 16:30N 33°21' W 118°19'4 7.6
2018-Jul-21 16:00N 33°22' W 118°15'1326.0
2018-Jul-21 15:31N 33°24' W 117°60'1325.9
2018-Jul-21 15:01N 33°27' W 117°45'3 5.7
2018-Jul-21 14:30N 33°28' W 117°42'0 0.1
2018-Jul-21 14:00N 33°28' W 117°41'0 0.1
2018-Jul-21 13:30N 33°28' W 117°41'0 0.0
2018-Jul-21 03:09N 33°28' W 117°42'0 2.2
2018-Jul-21 03:00N 33°27' W 117°41'1326.1
2018-Jul-21 02:30N 33°25' W 117°57'1427.1
2018-Jul-21 02:01N 33°22' W 118°13'611.2
2018-Jul-21 01:30N 33°21' W 118°19'3 6.1
2018-Jul-21 01:01N 33°22' W 118°16'1427.0
2018-Jul-21 00:30N 33°24' W 117°60'1327.0
2018-Jul-21 00:00N 33°27' W 117°44'2 4.7
2018-Jul-20 23:30N 33°28' W 117°42'0 0.0
2018-Jul-20 23:00N 33°28' W 117°42'0 0.0
2018-Jul-20 22:31N 33°28' W 117°42'510.9
2018-Jul-20 22:00N 33°26' W 117°48'1427.8
2018-Jul-20 21:31N 33°23' W 118°04'1326.0
2018-Jul-20 21:00N 33°21' W 118°19'0 0.1
2018-Jul-20 20:30N 33°21' W 118°19'917.1
2018-Jul-20 20:01N 33°23' W 118°09'1326.3
2018-Jul-20 19:30N 33°25' W 117°54'1121.3
2018-Jul-20 19:00N 33°28' W 117°42'0 0.0
2018-Jul-20 18:30N 33°28' W 117°42'1 1.2
2018-Jul-20 18:01N 33°27' W 117°42'1428.0
2018-Jul-20 17:31N 33°24' W 117°58'1427.7
2018-Jul-20 17:01N 33°21' W 118°14'4 7.8
2018-Jul-20 16:29N 33°21' W 118°19'3 7.3
2018-Jul-20 16:00N 33°21' W 118°15'1325.8
2018-Jul-20 15:30N 33°24' W 118°00'1325.6
2018-Jul-20 15:00N 33°26' W 117°45'3 6.4
2018-Jul-20 14:30N 33°28' W 117°42'0 0.0
2018-Jul-20 14:00N 33°28' W 117°42'0 0.1
2018-Jul-20 13:30N 33°28' W 117°41'0 0.0
2018-Jul-20 03:21N 33°28' W 117°42'0 0.0
2018-Jul-20 03:00N 33°28' W 117°42'0 0.0
2018-Jul-20 02:30N 33°28' W 117°42'0 0.2
2018-Jul-20 02:00N 33°27' W 117°42'1325.0
2018-Jul-20 01:30N 33°25' W 117°56'1427.5
2018-Jul-20 00:59N 33°22' W 118°13'5 6.3
2018-Jul-20 00:07N 33°21' W 118°19'112.4
2018-Jul-20 00:01N 33°21' W 118°18'1326.7
2018-Jul-19 23:30N 33°24' W 118°02'1326.9
2018-Jul-19 23:01N 33°26' W 117°46'4 8.4
2018-Jul-19 22:30N 33°28' W 117°42'0 0.0
2018-Jul-19 22:00N 33°28' W 117°42'0 0.0
2018-Jul-19 21:31N 33°28' W 117°42'0 0.0
2018-Jul-19 21:00N 33°28' W 117°42'0 0.0
2018-Jul-19 20:30N 33°28' W 117°42'1 2.3
2018-Jul-19 20:01N 33°27' W 117°43'1427.1
2018-Jul-19 19:31N 33°24' W 117°59'1427.2
2018-Jul-19 18:59N 33°22' W 118°15'4 4.4
2018-Jul-19 18:10N 33°21' W 118°19'419.4
2018-Jul-19 17:58N 33°22' W 118°15'1226.1
2018-Jul-19 17:30N 33°24' W 118°01'1326.0
2018-Jul-19 17:01N 33°26' W 117°45'4 7.0
2018-Jul-19 16:30N 33°28' W 117°42'0 0.0
2018-Jul-19 16:00N 33°28' W 117°42'0 0.0
2018-Jul-19 15:30N 33°28' W 117°42'0 0.0
2018-Jul-19 03:08N 33°28' W 117°42'0 0.0
2018-Jul-19 03:00N 33°28' W 117°42'0 0.0
2018-Jul-19 02:30N 33°28' W 117°42'0 0.0
2018-Jul-19 02:00N 33°28' W 117°42'1121.9
2018-Jul-19 01:30N 33°25' W 117°55'1326.5
2018-Jul-19 01:01N 33°22' W 118°10'816.3
2018-Jul-19 00:31N 33°21' W 118°19'2 3.7
2018-Jul-19 00:01N 33°21' W 118°17'1326.2
2018-Jul-18 23:31N 33°24' W 118°02'1326.4
2018-Jul-18 23:00N 33°26' W 117°46'4 8.2
2018-Jul-18 22:30N 33°28' W 117°42'0 0.0
2018-Jul-18 22:00N 33°28' W 117°42'0 0.0
2018-Jul-18 21:30N 33°28' W 117°42'0 0.0
2018-Jul-18 21:00N 33°28' W 117°42'0 0.0
2018-Jul-18 20:30N 33°28' W 117°42'1 2.8
2018-Jul-18 20:01N 33°27' W 117°43'1326.9
2018-Jul-18 19:31N 33°24' W 117°59'1427.1
2018-Jul-18 19:01N 33°22' W 118°15'4 8.0
2018-Jul-18 18:30N 33°21' W 118°19'5 9.2
2018-Jul-18 18:00N 33°22' W 118°14'1325.7
2018-Jul-18 17:31N 33°24' W 117°59'1325.6
2018-Jul-18 17:01N 33°27' W 117°44'2 4.4
2018-Jul-18 16:30N 33°28' W 117°42'0 0.1
2018-Jul-18 16:00N 33°28' W 117°41'0 0.1
2018-Jul-18 15:30N 33°28' W 117°42'0 0.0
2018-Jul-18 15:00N 33°28' W 117°42'0 0.0
2018-Jul-18 03:20N 33°28' W 117°42'0 0.0
2018-Jul-18 03:00N 33°28' W 117°42'0 0.0
2018-Jul-18 02:30N 33°28' W 117°42'0 0.1
2018-Jul-18 02:00N 33°28' W 117°42'1223.2
2018-Jul-18 01:31N 33°25' W 117°55'1427.1
2018-Jul-18 00:59N 33°22' W 118°12'710.8
2018-Jul-18 00:22N 33°21' W 118°19'511.5
2018-Jul-17 23:55N 33°22' W 118°13'1127.6
2018-Jul-17 23:30N 33°24' W 118°00'1427.5
2018-Jul-17 23:01N 33°27' W 117°44'2 4.5
2018-Jul-17 22:30N 33°28' W 117°42'0 0.0
2018-Jul-17 22:00N 33°28' W 117°42'0 0.0
2018-Jul-17 21:30N 33°28' W 117°42'0 0.0
2018-Jul-17 21:01N 33°28' W 117°42'0 0.0
2018-Jul-17 20:30N 33°28' W 117°42'4 7.6
2018-Jul-17 20:00N 33°26' W 117°46'1526.0
2018-Jul-17 19:27N 33°23' W 118°03'1225.5
2018-Jul-17 18:58N 33°21' W 118°17'2 2.1
2018-Jul-17 18:13N 33°21' W 118°19'724.3
2018-Jul-17 17:56N 33°23' W 118°12'1125.9
2018-Jul-17 17:31N 33°25' W 117°58'1325.7
2018-Jul-17 17:00N 33°27' W 117°43'2 3.2
2018-Jul-17 16:30N 33°28' W 117°42'0 0.0
2018-Jul-17 16:01N 33°28' W 117°42'0 0.0
2018-Jul-17 15:30N 33°28' W 117°42'0 0.0
2018-Jul-17 15:01N 33°28' W 117°42'0 0.0
2018-Jul-17 14:30N 33°28' W 117°42'0 0.0
2018-Jul-17 14:00N 33°28' W 117°42'0 0.0
2018-Jul-17 03:14N 33°28' W 117°42'0 0.0
2018-Jul-17 03:00N 33°28' W 117°42'0 0.0
2018-Jul-17 02:30N 33°28' W 117°42'2 4.7
2018-Jul-17 02:00N 33°26' W 117°44'1020.7
2018-Jul-17 01:31N 33°24' W 117°56'1224.9
2018-Jul-17 01:01N 33°22' W 118°11'7 9.6
2018-Jul-17 00:15N 33°21' W 118°19'1520.5
2018-Jul-16 23:31N 33°23' W 118°02'1326.0
2018-Jul-16 23:01N 33°26' W 117°46'4 8.5
2018-Jul-16 22:30N 33°28' W 117°42'0 0.0
2018-Jul-16 22:00N 33°28' W 117°42'0 0.0
2018-Jul-16 21:30N 33°28' W 117°42'0 0.0
2018-Jul-16 20:59N 33°28' W 117°42'0 0.0
2018-Jul-16 20:30N 33°28' W 117°42'3 6.0
2018-Jul-16 20:00N 33°26' W 117°45'1325.9
2018-Jul-16 19:31N 33°24' W 118°00'1326.0
2018-Jul-16 19:01N 33°21' W 118°15'3 4.2
2018-Jul-16 18:12N 33°21' W 118°19'722.8
2018-Jul-16 17:54N 33°22' W 118°11'1025.8
2018-Jul-16 17:30N 33°24' W 117°59'1325.8
2018-Jul-16 17:01N 33°27' W 117°44'2 4.5
2018-Jul-16 16:30N 33°28' W 117°42'0 0.0
2018-Jul-16 16:00N 33°28' W 117°42'0 0.1
2018-Jul-16 15:30N 33°28' W 117°41'0 0.1
2018-Jul-16 15:00N 33°28' W 117°42'0 0.0
2018-Jul-16 03:13N 33°28' W 117°42'1 3.9
2018-Jul-16 03:01N 33°27' W 117°42'1426.9
2018-Jul-16 02:30N 33°24' W 117°58'1326.8
2018-Jul-16 02:00N 33°22' W 118°14'5 9.5
2018-Jul-16 01:30N 33°21' W 118°19'2 4.1
2018-Jul-16 00:59N 33°21' W 118°17'1327.7
2018-Jul-16 00:30N 33°24' W 118°01'1427.6
2018-Jul-16 00:01N 33°27' W 117°45'3 6.2
2018-Jul-15 23:30N 33°28' W 117°42'0 0.0
2018-Jul-15 23:00N 33°28' W 117°42'0 0.0
2018-Jul-15 22:30N 33°28' W 117°42'611.7
2018-Jul-15 22:00N 33°26' W 117°48'1326.9
2018-Jul-15 21:31N 33°23' W 118°04'1326.1
2018-Jul-15 21:01N 33°21' W 118°19'0 0.2
2018-Jul-15 20:30N 33°21' W 118°19'713.8
2018-Jul-15 20:01N 33°23' W 118°11'1326.6
2018-Jul-15 19:30N 33°25' W 117°56'1224.2
2018-Jul-15 19:01N 33°27' W 117°42'0 0.5
2018-Jul-15 18:30N 33°28' W 117°42'3 5.1
2018-Jul-15 18:01N 33°26' W 117°44'1326.7
2018-Jul-15 17:30N 33°24' W 118°00'1326.7
2018-Jul-15 17:00N 33°21' W 118°16'3 6.4
2018-Jul-15 16:30N 33°21' W 118°19'2 4.1
2018-Jul-15 16:00N 33°22' W 118°17'1326.8
2018-Jul-15 15:31N 33°24' W 118°01'1326.3
2018-Jul-15 15:01N 33°27' W 117°46'4 7.6
2018-Jul-15 14:30N 33°28' W 117°42'0 0.0
2018-Jul-15 14:00N 33°28' W 117°42'0 0.1
2018-Jul-15 13:31N 33°28' W 117°41'0 0.0
2018-Jul-15 03:08N 33°28' W 117°42'0 2.5
2018-Jul-15 03:01N 33°27' W 117°41'1326.1
2018-Jul-15 02:31N 33°24' W 117°57'1427.1
2018-Jul-15 02:00N 33°22' W 118°13'611.4
2018-Jul-15 01:30N 33°21' W 118°19'0 0.4
2018-Jul-15 01:01N 33°21' W 118°19'1326.9
2018-Jul-15 00:31N 33°23' W 118°03'1427.9
2018-Jul-15 00:01N 33°26' W 117°47'5 9.6
2018-Jul-14 23:30N 33°28' W 117°42'0 0.0
2018-Jul-14 23:00N 33°28' W 117°42'0 0.0
2018-Jul-14 22:30N 33°28' W 117°42'510.2
2018-Jul-14 22:00N 33°26' W 117°47'1427.7
2018-Jul-14 21:31N 33°23' W 118°04'1326.6
2018-Jul-14 21:00N 33°21' W 118°19'0 0.3
2018-Jul-14 20:30N 33°21' W 118°19'612.4
2018-Jul-14 20:00N 33°22' W 118°12'1326.9
2018-Jul-14 19:30N 33°24' W 117°56'1325.1
2018-Jul-14 19:00N 33°27' W 117°42'0 0.5
2018-Jul-14 18:30N 33°28' W 117°42'1 2.8
2018-Jul-14 18:00N 33°27' W 117°43'1427.7
2018-Jul-14 17:30N 33°24' W 117°59'1427.5
2018-Jul-14 17:00N 33°22' W 118°15'4 7.3
2018-Jul-14 16:30N 33°21' W 118°19'4 7.7
2018-Jul-14 16:01N 33°22' W 118°15'1326.9
2018-Jul-14 15:31N 33°25' W 117°59'1326.8
2018-Jul-14 15:00N 33°27' W 117°43'2 3.6
2018-Jul-14 14:30N 33°28' W 117°42'0 0.1
2018-Jul-14 13:30N 33°28' W 117°41'0 0.1
2018-Jul-14 13:00N 33°28' W 117°42'0 0.0
2018-Jul-14 03:15N 33°28' W 117°42'0 1.7
2018-Jul-14 03:01N 33°27' W 117°41'1326.6
2018-Jul-14 02:31N 33°24' W 117°57'1326.7
2018-Jul-14 02:00N 33°22' W 118°13'610.5
2018-Jul-14 01:29N 33°21' W 118°19'4 8.6
2018-Jul-14 01:00N 33°20' W 118°14'1326.2
2018-Jul-14 00:31N 33°22' W 117°59'1325.9
2018-Jul-14 00:00N 33°26' W 117°44'3 5.6
2018-Jul-13 23:30N 33°28' W 117°42'0 0.0
2018-Jul-13 23:00N 33°28' W 117°42'0 0.0
2018-Jul-13 22:30N 33°28' W 117°42'714.5
2018-Jul-13 22:01N 33°25' W 117°50'1527.3
2018-Jul-13 21:27N 33°22' W 118°08'10 8.3
2018-Jul-13 20:15N 33°21' W 118°19'622.7
2018-Jul-13 19:58N 33°22' W 118°12'1327.1
2018-Jul-13 19:30N 33°25' W 117°57'1326.7
2018-Jul-13 19:00N 33°27' W 117°42'0 0.9
2018-Jul-13 18:30N 33°28' W 117°42'1 1.6
2018-Jul-13 18:00N 33°27' W 117°42'1427.7
2018-Jul-13 17:31N 33°24' W 117°58'1427.4
2018-Jul-13 17:00N 33°22' W 118°15'4 8.2
2018-Jul-13 16:30N 33°21' W 118°19'2 3.9
2018-Jul-13 16:00N 33°21' W 118°17'1427.0
2018-Jul-13 15:30N 33°24' W 118°01'1326.9
2018-Jul-13 15:01N 33°26' W 117°45'4 3.5
2018-Jul-13 14:00N 33°28' W 117°42'0 0.1
2018-Jul-13 13:30N 33°28' W 117°41'0 0.1
2018-Jul-13 13:00N 33°28' W 117°42'0 0.0
2018-Jul-13 03:25N 33°28' W 117°42'0 0.0
2018-Jul-13 03:00N 33°28' W 117°42'0 0.0
2018-Jul-13 02:30N 33°28' W 117°42'0 0.0
2018-Jul-13 02:00N 33°28' W 117°42'1122.0
2018-Jul-13 01:31N 33°25' W 117°54'1427.2
2018-Jul-13 00:59N 33°22' W 118°11'710.8
2018-Jul-13 00:20N 33°21' W 118°19'1 1.5
2018-Jul-13 00:00N 33°21' W 118°19'1427.5
2018-Jul-12 23:30N 33°23' W 118°03'1427.2
2018-Jul-12 23:00N 33°26' W 117°47'4 9.0
2018-Jul-12 22:30N 33°28' W 117°42'0 0.2
2018-Jul-12 22:00N 33°28' W 117°41'1324.4
2018-Jul-12 21:29N 33°25' W 117°56'1428.4
2018-Jul-12 21:01N 33°22' W 118°12'612.2
2018-Jul-12 20:30N 33°21' W 118°20'0 0.0
2018-Jul-12 20:01N 33°21' W 118°20'1 1.2
2018-Jul-12 19:30N 33°21' W 118°19'612.7
2018-Jul-12 19:01N 33°27' W 118°17'1326.9
2018-Jul-12 18:30N 33°40' W 118°12'612.5
2018-Jul-12 18:00N 33°46' W 118°12'0 0.0
2018-Jul-12 17:30N 33°46' W 118°12'0 0.0
2018-Jul-12 17:00N 33°46' W 118°12'0 0.0
2018-Jul-12 16:30N 33°46' W 118°12'  

Dump ship's entire track history